sensor_id;sensor_type;location;lat;lon;timestamp;temperature;humidity
32139;DHT22;18644;48.700;9.210;2023-11-21T00:01:26;11.70;66.10
32139;DHT22;18644;48.700;9.210;2023-11-21T00:03:53;11.70;66.10
32139;DHT22;18644;48.700;9.210;2023-11-21T00:06:20;11.70;66.20
32139;DHT22;18644;48.700;9.210;2023-11-21T00:08:47;11.70;66.20
32139;DHT22;18644;48.700;9.210;2023-11-21T00:11:14;11.70;66.20
32139;DHT22;18644;48.700;9.210;2023-11-21T00:13:42;11.70;66.30
32139;DHT22;18644;48.700;9.210;2023-11-21T00:16:11;11.60;66.30
32139;DHT22;18644;48.700;9.210;2023-11-21T00:18:37;11.70;66.30
32139;DHT22;18644;48.700;9.210;2023-11-21T00:21:05;11.70;66.40
32139;DHT22;18644;48.700;9.210;2023-11-21T00:23:32;11.70;66.40
32139;DHT22;18644;48.700;9.210;2023-11-21T00:25:59;11.70;66.40
32139;DHT22;18644;48.700;9.210;2023-11-21T00:28:26;11.70;67.20
32139;DHT22;18644;48.700;9.210;2023-11-21T00:30:54;11.60;67.20
32139;DHT22;18644;48.700;9.210;2023-11-21T00:33:21;11.60;66.50
32139;DHT22;18644;48.700;9.210;2023-11-21T00:35:48;11.60;66.60
32139;DHT22;18644;48.700;9.210;2023-11-21T00:38:15;11.60;66.60
32139;DHT22;18644;48.700;9.210;2023-11-21T00:40:45;11.60;66.70
32139;DHT22;18644;48.700;9.210;2023-11-21T00:43:12;11.60;66.80
32139;DHT22;18644;48.700;9.210;2023-11-21T00:45:40;11.60;66.80
32139;DHT22;18644;48.700;9.210;2023-11-21T00:48:09;11.60;66.90
32139;DHT22;18644;48.700;9.210;2023-11-21T00:50:37;11.60;66.90
32139;DHT22;18644;48.700;9.210;2023-11-21T00:53:04;11.60;66.90
32139;DHT22;18644;48.700;9.210;2023-11-21T00:55:32;11.60;66.90
32139;DHT22;18644;48.700;9.210;2023-11-21T00:58:00;11.60;66.90
32139;DHT22;18644;48.700;9.210;2023-11-21T01:00:29;11.60;66.90
32139;DHT22;18644;48.700;9.210;2023-11-21T01:02:56;11.60;67.00
32139;DHT22;18644;48.700;9.210;2023-11-21T01:05:25;11.50;66.90
32139;DHT22;18644;48.700;9.210;2023-11-21T01:07:52;11.50;67.00
32139;DHT22;18644;48.700;9.210;2023-11-21T01:10:19;11.50;67.00
32139;DHT22;18644;48.700;9.210;2023-11-21T01:12:46;11.50;67.00
32139;DHT22;18644;48.700;9.210;2023-11-21T01:15:14;11.50;67.10
32139;DHT22;18644;48.700;9.210;2023-11-21T01:17:41;11.50;67.20
32139;DHT22;18644;48.700;9.210;2023-11-21T01:20:09;11.50;67.30
32139;DHT22;18644;48.700;9.210;2023-11-21T01:22:39;11.50;67.40
32139;DHT22;18644;48.700;9.210;2023-11-21T01:25:07;11.50;67.50
32139;DHT22;18644;48.700;9.210;2023-11-21T01:27:34;11.50;67.50
32139;DHT22;18644;48.700;9.210;2023-11-21T01:30:02;11.50;67.60
32139;DHT22;18644;48.700;9.210;2023-11-21T01:32:30;11.50;67.70
32139;DHT22;18644;48.700;9.210;2023-11-21T01:34:56;11.50;67.70
32139;DHT22;18644;48.700;9.210;2023-11-21T01:37:24;11.50;67.70
32139;DHT22;18644;48.700;9.210;2023-11-21T01:39:54;11.50;67.70
32139;DHT22;18644;48.700;9.210;2023-11-21T01:42:21;11.60;67.80
32139;DHT22;18644;48.700;9.210;2023-11-21T01:44:49;11.60;67.80
32139;DHT22;18644;48.700;9.210;2023-11-21T01:47:16;11.60;67.80
32139;DHT22;18644;48.700;9.210;2023-11-21T01:49:44;11.60;67.80
32139;DHT22;18644;48.700;9.210;2023-11-21T01:52:12;11.60;67.80
32139;DHT22;18644;48.700;9.210;2023-11-21T01:54:41;11.60;67.80
32139;DHT22;18644;48.700;9.210;2023-11-21T01:57:09;11.60;67.70
32139;DHT22;18644;48.700;9.210;2023-11-21T01:59:37;11.60;67.70
32139;DHT22;18644;48.700;9.210;2023-11-21T02:02:05;11.60;67.60
32139;DHT22;18644;48.700;9.210;2023-11-21T02:04:32;11.60;67.60
32139;DHT22;18644;48.700;9.210;2023-11-21T02:06:59;11.60;67.60
32139;DHT22;18644;48.700;9.210;2023-11-21T02:09:27;11.60;67.60
32139;DHT22;18644;48.700;9.210;2023-11-21T02:11:56;11.60;67.50
32139;DHT22;18644;48.700;9.210;2023-11-21T02:14:25;11.70;67.50
32139;DHT22;18644;48.700;9.210;2023-11-21T02:16:53;11.70;67.50
32139;DHT22;18644;48.700;9.210;2023-11-21T02:19:21;11.70;67.50
32139;DHT22;18644;48.700;9.210;2023-11-21T02:21:51;11.60;67.40
32139;DHT22;18644;48.700;9.210;2023-11-21T02:24:21;11.70;67.40
32139;DHT22;18644;48.700;9.210;2023-11-21T02:26:49;11.70;67.30
32139;DHT22;18644;48.700;9.210;2023-11-21T02:29:16;11.60;67.10
32139;DHT22;18644;48.700;9.210;2023-11-21T02:31:44;11.60;67.10
32139;DHT22;18644;48.700;9.210;2023-11-21T02:34:14;11.60;67.80
32139;DHT22;18644;48.700;9.210;2023-11-21T02:36:41;11.60;66.90
32139;DHT22;18644;48.700;9.210;2023-11-21T02:39:08;11.60;66.90
32139;DHT22;18644;48.700;9.210;2023-11-21T02:41:37;11.60;66.80
32139;DHT22;18644;48.700;9.210;2023-11-21T02:44:05;11.60;66.70
32139;DHT22;18644;48.700;9.210;2023-11-21T02:46:33;11.50;66.50
32139;DHT22;18644;48.700;9.210;2023-11-21T02:49:00;11.50;66.60
32139;DHT22;18644;48.700;9.210;2023-11-21T02:51:27;11.50;66.50
32139;DHT22;18644;48.700;9.210;2023-11-21T02:53:54;11.50;66.40
32139;DHT22;18644;48.700;9.210;2023-11-21T02:56:24;11.40;66.30
32139;DHT22;18644;48.700;9.210;2023-11-21T02:58:54;11.40;66.30
32139;DHT22;18644;48.700;9.210;2023-11-21T03:01:22;11.40;66.30
32139;DHT22;18644;48.700;9.210;2023-11-21T03:03:50;11.30;66.30
32139;DHT22;18644;48.700;9.210;2023-11-21T03:06:17;11.30;66.40
32139;DHT22;18644;48.700;9.210;2023-11-21T03:08:45;11.30;66.50
32139;DHT22;18644;48.700;9.210;2023-11-21T03:11:11;11.30;66.60
32139;DHT22;18644;48.700;9.210;2023-11-21T03:13:39;11.30;66.70
32139;DHT22;18644;48.700;9.210;2023-11-21T03:16:08;11.30;66.80
32139;DHT22;18644;48.700;9.210;2023-11-21T03:18:35;11.30;66.90
32139;DHT22;18644;48.700;9.210;2023-11-21T03:21:03;11.20;66.80
32139;DHT22;18644;48.700;9.210;2023-11-21T03:23:30;11.30;67.00
32139;DHT22;18644;48.700;9.210;2023-11-21T03:25:57;11.30;67.00
32139;DHT22;18644;48.700;9.210;2023-11-21T03:28:25;11.30;67.00
32139;DHT22;18644;48.700;9.210;2023-11-21T03:30:52;11.30;66.90
32139;DHT22;18644;48.700;9.210;2023-11-21T03:33:20;11.30;66.90
32139;DHT22;18644;48.700;9.210;2023-11-21T03:35:47;11.20;66.90
32139;DHT22;18644;48.700;9.210;2023-11-21T03:38:14;11.20;67.00
32139;DHT22;18644;48.700;9.210;2023-11-21T03:40:42;11.20;67.00
32139;DHT22;18644;48.700;9.210;2023-11-21T03:43:09;11.30;67.10
32139;DHT22;18644;48.700;9.210;2023-11-21T03:45:36;11.30;67.20
32139;DHT22;18644;48.700;9.210;2023-11-21T03:48:06;11.30;67.20
32139;DHT22;18644;48.700;9.210;2023-11-21T03:50:34;11.20;67.20
32139;DHT22;18644;48.700;9.210;2023-11-21T03:53:01;11.30;67.30
32139;DHT22;18644;48.700;9.210;2023-11-21T03:55:29;11.30;67.20
32139;DHT22;18644;48.700;9.210;2023-11-21T03:57:56;11.30;67.30
32139;DHT22;18644;48.700;9.210;2023-11-21T04:00:24;11.30;67.20
32139;DHT22;18644;48.700;9.210;2023-11-21T04:02:52;11.30;67.20
32139;DHT22;18644;48.700;9.210;2023-11-21T04:05:20;11.30;67.20
32139;DHT22;18644;48.700;9.210;2023-11-21T04:07:49;11.30;67.20
32139;DHT22;18644;48.700;9.210;2023-11-21T04:10:17;11.30;67.30
32139;DHT22;18644;48.700;9.210;2023-11-21T04:12:44;11.30;67.20
32139;DHT22;18644;48.700;9.210;2023-11-21T04:15:11;11.30;67.30
32139;DHT22;18644;48.700;9.210;2023-11-21T04:17:39;11.30;67.20
32139;DHT22;18644;48.700;9.210;2023-11-21T04:20:07;11.20;67.20
32139;DHT22;18644;48.700;9.210;2023-11-21T04:22:36;11.30;67.30
32139;DHT22;18644;48.700;9.210;2023-11-21T04:25:08;11.30;67.40
32139;DHT22;18644;48.700;9.210;2023-11-21T04:27:36;11.30;67.30
32139;DHT22;18644;48.700;9.210;2023-11-21T04:30:04;11.30;67.20
32139;DHT22;18644;48.700;9.210;2023-11-21T04:32:33;11.30;67.20
32139;DHT22;18644;48.700;9.210;2023-11-21T04:35:00;11.30;67.20
32139;DHT22;18644;48.700;9.210;2023-11-21T04:37:27;11.30;67.90
32139;DHT22;18644;48.700;9.210;2023-11-21T04:39:54;11.30;67.10
32139;DHT22;18644;48.700;9.210;2023-11-21T04:42:22;11.30;67.10
32139;DHT22;18644;48.700;9.210;2023-11-21T04:44:49;11.30;67.20
32139;DHT22;18644;48.700;9.210;2023-11-21T04:47:18;11.20;67.00
32139;DHT22;18644;48.700;9.210;2023-11-21T04:49:46;11.20;67.10
32139;DHT22;18644;48.700;9.210;2023-11-21T04:52:13;11.20;67.10
32139;DHT22;18644;48.700;9.210;2023-11-21T04:54:40;11.20;67.20
32139;DHT22;18644;48.700;9.210;2023-11-21T04:57:08;11.20;67.20
32139;DHT22;18644;48.700;9.210;2023-11-21T04:59:36;11.20;67.30
32139;DHT22;18644;48.700;9.210;2023-11-21T05:02:03;11.20;67.30
32139;DHT22;18644;48.700;9.210;2023-11-21T05:04:30;11.20;67.40
32139;DHT22;18644;48.700;9.210;2023-11-21T05:06:57;11.20;67.40
32139;DHT22;18644;48.700;9.210;2023-11-21T05:09:26;11.10;67.40
32139;DHT22;18644;48.700;9.210;2023-11-21T05:11:54;11.20;67.50
32139;DHT22;18644;48.700;9.210;2023-11-21T05:14:21;11.20;67.60
32139;DHT22;18644;48.700;9.210;2023-11-21T05:16:49;11.20;67.50
32139;DHT22;18644;48.700;9.210;2023-11-21T05:19:17;11.10;67.60
32139;DHT22;18644;48.700;9.210;2023-11-21T05:21:44;11.20;67.70
32139;DHT22;18644;48.700;9.210;2023-11-21T05:24:12;11.20;67.70
32139;DHT22;18644;48.700;9.210;2023-11-21T05:26:39;11.20;67.80
32139;DHT22;18644;48.700;9.210;2023-11-21T05:29:06;11.20;67.80
32139;DHT22;18644;48.700;9.210;2023-11-21T05:31:34;11.10;67.80
32139;DHT22;18644;48.700;9.210;2023-11-21T05:34:03;11.20;67.80
32139;DHT22;18644;48.700;9.210;2023-11-21T05:36:31;11.10;67.80
32139;DHT22;18644;48.700;9.210;2023-11-21T05:38:57;11.10;67.80
32139;DHT22;18644;48.700;9.210;2023-11-21T05:41:24;11.10;67.80
32139;DHT22;18644;48.700;9.210;2023-11-21T05:43:51;11.10;67.70
32139;DHT22;18644;48.700;9.210;2023-11-21T05:46:19;11.10;67.70
32139;DHT22;18644;48.700;9.210;2023-11-21T05:48:47;11.10;67.70
32139;DHT22;18644;48.700;9.210;2023-11-21T05:51:15;11.10;67.70
32139;DHT22;18644;48.700;9.210;2023-11-21T05:53:43;11.10;67.70
32139;DHT22;18644;48.700;9.210;2023-11-21T05:56:10;11.10;67.70
32139;DHT22;18644;48.700;9.210;2023-11-21T05:58:37;11.10;67.60
32139;DHT22;18644;48.700;9.210;2023-11-21T06:01:05;11.10;67.70
32139;DHT22;18644;48.700;9.210;2023-11-21T06:03:34;11.10;67.80
32139;DHT22;18644;48.700;9.210;2023-11-21T06:06:01;11.00;67.70
32139;DHT22;18644;48.700;9.210;2023-11-21T06:08:31;11.10;67.80
32139;DHT22;18644;48.700;9.210;2023-11-21T06:10:58;11.00;67.80
32139;DHT22;18644;48.700;9.210;2023-11-21T06:13:24;11.00;67.80
32139;DHT22;18644;48.700;9.210;2023-11-21T06:15:52;11.00;67.80
32139;DHT22;18644;48.700;9.210;2023-11-21T06:18:19;11.00;67.90
32139;DHT22;18644;48.700;9.210;2023-11-21T06:20:46;11.00;67.90
32139;DHT22;18644;48.700;9.210;2023-11-21T06:23:13;11.00;67.90
32139;DHT22;18644;48.700;9.210;2023-11-21T06:25:41;11.00;68.00
32139;DHT22;18644;48.700;9.210;2023-11-21T06:28:08;11.00;68.10
32139;DHT22;18644;48.700;9.210;2023-11-21T06:30:35;11.00;68.10
32139;DHT22;18644;48.700;9.210;2023-11-21T06:33:02;11.00;68.20
32139;DHT22;18644;48.700;9.210;2023-11-21T06:35:29;11.00;68.20
32139;DHT22;18644;48.700;9.210;2023-11-21T06:37:59;11.00;68.30
32139;DHT22;18644;48.700;9.210;2023-11-21T06:40:26;11.00;68.40
32139;DHT22;18644;48.700;9.210;2023-11-21T06:42:54;11.00;68.40
32139;DHT22;18644;48.700;9.210;2023-11-21T06:45:21;11.00;68.50
32139;DHT22;18644;48.700;9.210;2023-11-21T06:47:48;11.00;68.50
32139;DHT22;18644;48.700;9.210;2023-11-21T06:50:15;11.00;68.60
32139;DHT22;18644;48.700;9.210;2023-11-21T06:52:42;11.00;68.60
32139;DHT22;18644;48.700;9.210;2023-11-21T06:55:09;11.00;68.60
32139;DHT22;18644;48.700;9.210;2023-11-21T06:57:37;11.00;68.60
32139;DHT22;18644;48.700;9.210;2023-11-21T07:00:07;11.10;68.70
32139;DHT22;18644;48.700;9.210;2023-11-21T07:02:35;11.10;68.70
32139;DHT22;18644;48.700;9.210;2023-11-21T07:05:02;11.10;68.60
32139;DHT22;18644;48.700;9.210;2023-11-21T07:07:29;11.10;68.70
32139;DHT22;18644;48.700;9.210;2023-11-21T07:09:56;11.10;68.70
32139;DHT22;18644;48.700;9.210;2023-11-21T07:12:28;11.10;68.80
32139;DHT22;18644;48.700;9.210;2023-11-21T07:14:56;11.10;68.70
32139;DHT22;18644;48.700;9.210;2023-11-21T07:17:24;11.20;68.70
32139;DHT22;18644;48.700;9.210;2023-11-21T07:19:51;11.20;68.70
32139;DHT22;18644;48.700;9.210;2023-11-21T07:22:18;11.20;68.70
32139;DHT22;18644;48.700;9.210;2023-11-21T07:24:48;11.20;68.70
32139;DHT22;18644;48.700;9.210;2023-11-21T07:27:16;11.20;68.80
32139;DHT22;18644;48.700;9.210;2023-11-21T07:29:43;11.30;68.80
32139;DHT22;18644;48.700;9.210;2023-11-21T07:32:10;11.30;68.80
32139;DHT22;18644;48.700;9.210;2023-11-21T07:34:40;11.30;68.80
32139;DHT22;18644;48.700;9.210;2023-11-21T07:37:07;11.30;68.70
32139;DHT22;18644;48.700;9.210;2023-11-21T07:39:34;11.30;68.70
32139;DHT22;18644;48.700;9.210;2023-11-21T07:42:01;11.40;68.70
32139;DHT22;18644;48.700;9.210;2023-11-21T07:44:28;11.40;68.70
32139;DHT22;18644;48.700;9.210;2023-11-21T07:46:55;11.40;68.70
32139;DHT22;18644;48.700;9.210;2023-11-21T07:49:23;11.40;68.60
32139;DHT22;18644;48.700;9.210;2023-11-21T07:51:51;11.40;68.70
32139;DHT22;18644;48.700;9.210;2023-11-21T07:54:18;11.40;68.90
32139;DHT22;18644;48.700;9.210;2023-11-21T07:56:46;11.50;68.80
32139;DHT22;18644;48.700;9.210;2023-11-21T07:59:13;11.50;68.80
32139;DHT22;18644;48.700;9.210;2023-11-21T08:01:40;11.50;68.90
32139;DHT22;18644;48.700;9.210;2023-11-21T08:04:08;11.50;68.90
32139;DHT22;18644;48.700;9.210;2023-11-21T08:06:35;11.50;69.00
32139;DHT22;18644;48.700;9.210;2023-11-21T08:09:03;11.50;69.00
32139;DHT22;18644;48.700;9.210;2023-11-21T08:11:31;11.60;69.00
32139;DHT22;18644;48.700;9.210;2023-11-21T08:13:58;11.60;68.90
32139;DHT22;18644;48.700;9.210;2023-11-21T08:16:25;11.60;68.80
32139;DHT22;18644;48.700;9.210;2023-11-21T08:18:53;11.70;68.90
32139;DHT22;18644;48.700;9.210;2023-11-21T08:21:20;11.70;68.80
32139;DHT22;18644;48.700;9.210;2023-11-21T08:23:49;11.70;68.80
32139;DHT22;18644;48.700;9.210;2023-11-21T08:26:21;11.70;68.80
32139;DHT22;18644;48.700;9.210;2023-11-21T08:28:48;11.80;68.80
32139;DHT22;18644;48.700;9.210;2023-11-21T08:31:15;11.80;68.80
32139;DHT22;18644;48.700;9.210;2023-11-21T08:33:42;11.80;68.80
32139;DHT22;18644;48.700;9.210;2023-11-21T08:36:09;11.80;68.70
32139;DHT22;18644;48.700;9.210;2023-11-21T08:38:37;11.80;68.80
32139;DHT22;18644;48.700;9.210;2023-11-21T08:41:05;11.80;68.80
32139;DHT22;18644;48.700;9.210;2023-11-21T08:43:35;11.90;68.80
32139;DHT22;18644;48.700;9.210;2023-11-21T08:46:05;12.00;69.00
32139;DHT22;18644;48.700;9.210;2023-11-21T08:48:35;12.00;69.00
32139;DHT22;18644;48.700;9.210;2023-11-21T08:51:02;12.00;69.70
32139;DHT22;18644;48.700;9.210;2023-11-21T08:53:30;12.00;69.00
32139;DHT22;18644;48.700;9.210;2023-11-21T08:55:57;12.10;68.90
32139;DHT22;18644;48.700;9.210;2023-11-21T08:58:24;12.10;68.70
32139;DHT22;18644;48.700;9.210;2023-11-21T09:00:52;12.10;68.70
32139;DHT22;18644;48.700;9.210;2023-11-21T09:03:19;12.20;68.70
32139;DHT22;18644;48.700;9.210;2023-11-21T09:05:46;12.20;68.70
32139;DHT22;18644;48.700;9.210;2023-11-21T09:08:12;12.20;68.70
32139;DHT22;18644;48.700;9.210;2023-11-21T09:10:39;12.30;68.80
32139;DHT22;18644;48.700;9.210;2023-11-21T09:13:08;12.30;69.60
32139;DHT22;18644;48.700;9.210;2023-11-21T09:15:35;12.40;69.00
32139;DHT22;18644;48.700;9.210;2023-11-21T09:18:04;12.40;69.00
32139;DHT22;18644;48.700;9.210;2023-11-21T09:20:31;12.50;69.00
32139;DHT22;18644;48.700;9.210;2023-11-21T09:22:58;12.50;68.80
32139;DHT22;18644;48.700;9.210;2023-11-21T09:25:25;12.60;69.00
32139;DHT22;18644;48.700;9.210;2023-11-21T09:27:54;12.60;69.10
32139;DHT22;18644;48.700;9.210;2023-11-21T09:30:22;12.70;69.20
32139;DHT22;18644;48.700;9.210;2023-11-21T09:32:50;12.70;69.10
32139;DHT22;18644;48.700;9.210;2023-11-21T09:35:18;12.80;69.10
32139;DHT22;18644;48.700;9.210;2023-11-21T09:37:45;12.90;68.80
32139;DHT22;18644;48.700;9.210;2023-11-21T09:40:12;12.90;69.00
32139;DHT22;18644;48.700;9.210;2023-11-21T09:42:48;13.00;69.20
32139;DHT22;18644;48.700;9.210;2023-11-21T09:45:21;13.10;68.90
32139;DHT22;18644;48.700;9.210;2023-11-21T09:47:53;13.20;68.60
32139;DHT22;18644;48.700;9.210;2023-11-21T09:50:22;13.30;68.40
32139;DHT22;18644;48.700;9.210;2023-11-21T09:52:57;13.30;68.20
32139;DHT22;18644;48.700;9.210;2023-11-21T09:55:27;13.40;67.70
32139;DHT22;18644;48.700;9.210;2023-11-21T09:57:56;13.40;67.50
32139;DHT22;18644;48.700;9.210;2023-11-21T10:00:23;13.40;67.50
32139;DHT22;18644;48.700;9.210;2023-11-21T10:02:51;13.50;67.50
32139;DHT22;18644;48.700;9.210;2023-11-21T10:05:19;13.50;67.30
32139;DHT22;18644;48.700;9.210;2023-11-21T10:07:49;13.50;67.00
32139;DHT22;18644;48.700;9.210;2023-11-21T10:10:19;13.60;66.80
32139;DHT22;18644;48.700;9.210;2023-11-21T10:12:49;13.60;66.60
32139;DHT22;18644;48.700;9.210;2023-11-21T10:15:21;13.60;66.40
32139;DHT22;18644;48.700;9.210;2023-11-21T10:17:49;13.60;66.00
32139;DHT22;18644;48.700;9.210;2023-11-21T10:20:19;13.60;65.60
32139;DHT22;18644;48.700;9.210;2023-11-21T10:22:46;13.60;65.60
32139;DHT22;18644;48.700;9.210;2023-11-21T10:25:15;13.50;65.50
32139;DHT22;18644;48.700;9.210;2023-11-21T10:27:46;13.50;65.40
32139;DHT22;18644;48.700;9.210;2023-11-21T10:30:15;13.50;65.50
32139;DHT22;18644;48.700;9.210;2023-11-21T10:32:43;13.50;65.40
32139;DHT22;18644;48.700;9.210;2023-11-21T10:35:10;13.50;65.50
32139;DHT22;18644;48.700;9.210;2023-11-21T10:37:37;13.50;65.40
32139;DHT22;18644;48.700;9.210;2023-11-21T10:40:06;13.50;65.40
32139;DHT22;18644;48.700;9.210;2023-11-21T10:42:38;13.50;65.40
32139;DHT22;18644;48.700;9.210;2023-11-21T10:45:06;13.50;65.50
32139;DHT22;18644;48.700;9.210;2023-11-21T10:47:38;13.50;65.80
32139;DHT22;18644;48.700;9.210;2023-11-21T10:50:05;13.60;66.00
32139;DHT22;18644;48.700;9.210;2023-11-21T10:52:36;13.60;65.80
32139;DHT22;18644;48.700;9.210;2023-11-21T10:55:16;13.60;65.60
32139;DHT22;18644;48.700;9.210;2023-11-21T10:57:48;13.60;65.30
32139;DHT22;18644;48.700;9.210;2023-11-21T11:00:16;13.60;65.10
32139;DHT22;18644;48.700;9.210;2023-11-21T11:02:46;13.60;65.10
32139;DHT22;18644;48.700;9.210;2023-11-21T11:05:19;13.60;65.00
32139;DHT22;18644;48.700;9.210;2023-11-21T11:07:48;13.60;65.00
32139;DHT22;18644;48.700;9.210;2023-11-21T11:10:20;13.50;65.00
32139;DHT22;18644;48.700;9.210;2023-11-21T11:12:49;13.40;65.10
32139;DHT22;18644;48.700;9.210;2023-11-21T11:15:18;13.40;65.30
32139;DHT22;18644;48.700;9.210;2023-11-21T11:17:46;13.40;65.50
32139;DHT22;18644;48.700;9.210;2023-11-21T11:20:15;13.40;65.60
32139;DHT22;18644;48.700;9.210;2023-11-21T11:22:48;13.30;65.60
32139;DHT22;18644;48.700;9.210;2023-11-21T11:25:28;13.30;65.90
32139;DHT22;18644;48.700;9.210;2023-11-21T11:28:06;13.30;66.20
32139;DHT22;18644;48.700;9.210;2023-11-21T11:30:44;13.30;66.50
32139;DHT22;18644;48.700;9.210;2023-11-21T11:33:23;13.30;66.90
32139;DHT22;18644;48.700;9.210;2023-11-21T11:36:02;13.40;68.00
32139;DHT22;18644;48.700;9.210;2023-11-21T11:38:32;13.40;67.00
32139;DHT22;18644;48.700;9.210;2023-11-21T11:41:02;13.40;66.90
32139;DHT22;18644;48.700;9.210;2023-11-21T11:43:32;13.50;66.70
32139;DHT22;18644;48.700;9.210;2023-11-21T11:46:05;13.50;66.40
32139;DHT22;18644;48.700;9.210;2023-11-21T11:48:37;13.50;66.50
32139;DHT22;18644;48.700;9.210;2023-11-21T11:51:05;13.50;66.50
32139;DHT22;18644;48.700;9.210;2023-11-21T11:53:39;13.50;66.40
32139;DHT22;18644;48.700;9.210;2023-11-21T11:56:22;13.60;66.40
32139;DHT22;18644;48.700;9.210;2023-11-21T11:58:53;13.60;66.50
32139;DHT22;18644;48.700;9.210;2023-11-21T12:01:22;13.60;66.40
32139;DHT22;18644;48.700;9.210;2023-11-21T12:04:23;13.60;66.40
32139;DHT22;18644;48.700;9.210;2023-11-21T12:06:57;13.60;66.40
32139;DHT22;18644;48.700;9.210;2023-11-21T12:09:28;13.60;66.40
32139;DHT22;18644;48.700;9.210;2023-11-21T12:11:57;13.60;66.60
32139;DHT22;18644;48.700;9.210;2023-11-21T12:14:25;13.60;67.50
32139;DHT22;18644;48.700;9.210;2023-11-21T12:16:53;13.60;66.80
32139;DHT22;18644;48.700;9.210;2023-11-21T12:19:20;13.60;66.80
32139;DHT22;18644;48.700;9.210;2023-11-21T12:21:48;13.60;66.80
32139;DHT22;18644;48.700;9.210;2023-11-21T12:24:16;13.60;66.60
32139;DHT22;18644;48.700;9.210;2023-11-21T12:26:43;13.60;66.70
32139;DHT22;18644;48.700;9.210;2023-11-21T12:29:11;13.50;66.80
32139;DHT22;18644;48.700;9.210;2023-11-21T12:31:39;13.60;67.20
32139;DHT22;18644;48.700;9.210;2023-11-21T12:34:07;13.60;67.30
32139;DHT22;18644;48.700;9.210;2023-11-21T12:36:37;13.60;67.30
32139;DHT22;18644;48.700;9.210;2023-11-21T12:39:04;13.70;67.20
32139;DHT22;18644;48.700;9.210;2023-11-21T12:41:31;13.70;67.20
32139;DHT22;18644;48.700;9.210;2023-11-21T12:43:58;13.70;66.90
32139;DHT22;18644;48.700;9.210;2023-11-21T12:46:25;13.70;66.80
32139;DHT22;18644;48.700;9.210;2023-11-21T12:48:57;13.80;66.80
32139;DHT22;18644;48.700;9.210;2023-11-21T12:51:24;13.80;66.90
32139;DHT22;18644;48.700;9.210;2023-11-21T12:53:52;13.90;66.90
32139;DHT22;18644;48.700;9.210;2023-11-21T12:56:21;13.80;66.40
32139;DHT22;18644;48.700;9.210;2023-11-21T12:58:50;13.80;66.30
32139;DHT22;18644;48.700;9.210;2023-11-21T13:01:25;13.90;66.50
32139;DHT22;18644;48.700;9.210;2023-11-21T13:03:53;13.90;66.70
32139;DHT22;18644;48.700;9.210;2023-11-21T13:06:22;13.90;66.90
32139;DHT22;18644;48.700;9.210;2023-11-21T13:08:50;13.90;67.00
32139;DHT22;18644;48.700;9.210;2023-11-21T13:11:18;13.90;66.90
32139;DHT22;18644;48.700;9.210;2023-11-21T13:13:45;13.90;66.90
32139;DHT22;18644;48.700;9.210;2023-11-21T13:16:12;13.90;66.80
32139;DHT22;18644;48.700;9.210;2023-11-21T13:18:40;13.90;66.80
32139;DHT22;18644;48.700;9.210;2023-11-21T13:21:09;13.90;66.90
32139;DHT22;18644;48.700;9.210;2023-11-21T13:23:42;13.90;67.00
32139;DHT22;18644;48.700;9.210;2023-11-21T13:26:12;13.90;66.90
32139;DHT22;18644;48.700;9.210;2023-11-21T13:28:40;13.90;66.80
32139;DHT22;18644;48.700;9.210;2023-11-21T13:31:11;14.00;66.90
32139;DHT22;18644;48.700;9.210;2023-11-21T13:33:46;13.90;66.70
32139;DHT22;18644;48.700;9.210;2023-11-21T13:36:20;14.00;66.60
32139;DHT22;18644;48.700;9.210;2023-11-21T13:38:49;13.90;66.60
32139;DHT22;18644;48.700;9.210;2023-11-21T13:41:18;13.90;66.70
32139;DHT22;18644;48.700;9.210;2023-11-21T13:43:45;13.90;66.70
32139;DHT22;18644;48.700;9.210;2023-11-21T13:46:19;13.90;66.70
32139;DHT22;18644;48.700;9.210;2023-11-21T13:48:48;13.90;66.60
32139;DHT22;18644;48.700;9.210;2023-11-21T13:51:21;13.90;66.60
32139;DHT22;18644;48.700;9.210;2023-11-21T13:53:58;13.90;66.50
32139;DHT22;18644;48.700;9.210;2023-11-21T13:56:26;13.90;66.10
32139;DHT22;18644;48.700;9.210;2023-11-21T13:58:54;13.80;66.50
32139;DHT22;18644;48.700;9.210;2023-11-21T14:01:26;13.70;65.60
32139;DHT22;18644;48.700;9.210;2023-11-21T14:04:13;13.70;65.50
32139;DHT22;18644;48.700;9.210;2023-11-21T14:06:45;13.60;65.30
32139;DHT22;18644;48.700;9.210;2023-11-21T14:09:16;13.50;65.20
32139;DHT22;18644;48.700;9.210;2023-11-21T14:11:49;13.40;65.20
32139;DHT22;18644;48.700;9.210;2023-11-21T14:14:19;13.30;65.30
32139;DHT22;18644;48.700;9.210;2023-11-21T14:16:47;13.30;65.50
32139;DHT22;18644;48.700;9.210;2023-11-21T14:19:14;13.20;65.70
32139;DHT22;18644;48.700;9.210;2023-11-21T14:21:42;13.20;66.00
32139;DHT22;18644;48.700;9.210;2023-11-21T14:24:09;13.10;66.10
32139;DHT22;18644;48.700;9.210;2023-11-21T14:26:40;13.10;66.20
32139;DHT22;18644;48.700;9.210;2023-11-21T14:29:07;13.10;66.40
32139;DHT22;18644;48.700;9.210;2023-11-21T14:31:36;13.00;66.40
32139;DHT22;18644;48.700;9.210;2023-11-21T14:34:03;13.00;66.60
32139;DHT22;18644;48.700;9.210;2023-11-21T14:36:32;13.00;66.80
32139;DHT22;18644;48.700;9.210;2023-11-21T14:38:59;13.00;66.90
32139;DHT22;18644;48.700;9.210;2023-11-21T14:41:26;13.00;66.80
32139;DHT22;18644;48.700;9.210;2023-11-21T14:43:55;12.90;66.70
32139;DHT22;18644;48.700;9.210;2023-11-21T14:46:22;12.90;66.70
32139;DHT22;18644;48.700;9.210;2023-11-21T14:48:49;12.90;66.70
32139;DHT22;18644;48.700;9.210;2023-11-21T14:51:24;12.80;66.80
32139;DHT22;18644;48.700;9.210;2023-11-21T14:53:56;12.80;66.80
32139;DHT22;18644;48.700;9.210;2023-11-21T14:56:26;12.80;67.00
32139;DHT22;18644;48.700;9.210;2023-11-21T14:58:58;12.80;67.10
32139;DHT22;18644;48.700;9.210;2023-11-21T15:01:32;12.80;67.20
32139;DHT22;18644;48.700;9.210;2023-11-21T15:04:10;12.70;67.10
32139;DHT22;18644;48.700;9.210;2023-11-21T15:06:46;12.70;67.10
32139;DHT22;18644;48.700;9.210;2023-11-21T15:09:13;12.70;67.20
32139;DHT22;18644;48.700;9.210;2023-11-21T15:12:05;12.60;67.10
32139;DHT22;18644;48.700;9.210;2023-11-21T15:14:42;12.70;67.90
32139;DHT22;18644;48.700;9.210;2023-11-21T15:17:11;12.60;67.00
32139;DHT22;18644;48.700;9.210;2023-11-21T15:19:41;12.60;67.10
32139;DHT22;18644;48.700;9.210;2023-11-21T15:22:09;12.50;67.00
32139;DHT22;18644;48.700;9.210;2023-11-21T15:24:38;12.50;67.10
32139;DHT22;18644;48.700;9.210;2023-11-21T15:27:07;12.50;67.30
32139;DHT22;18644;48.700;9.210;2023-11-21T15:29:34;12.50;67.50
32139;DHT22;18644;48.700;9.210;2023-11-21T15:32:02;12.50;67.50
32139;DHT22;18644;48.700;9.210;2023-11-21T15:34:31;12.50;67.70
32139;DHT22;18644;48.700;9.210;2023-11-21T15:36:58;12.40;67.60
32139;DHT22;18644;48.700;9.210;2023-11-21T15:39:25;12.40;67.70